Time;durP1;ratioP1;P1;durP2;ratioP2;P2;SDS_P1;SDS_P2;PMS_P1;PMS_P2;Temp;Humidity;BMP_temperature;BMP_pressure;BME280_temperature;BME280_humidity;BME280_pressure;Samples;Min_cycle;Max_cycle;Signal;HPM_P1;HPM_P2
2022/09/27 00:00:54;;;;;;;;;;;;;;;;;;5074561;28;19928;-64
2022/09/27 00:03:20;;;;;;;;;;;;;;;;;;5073061;28;19947;-65
2022/09/27 00:05:45;;;;;;;;;;;19.10;91.80;;;;;;5071957;28;20007;-65
2022/09/27 00:08:11;;;;;;;;;;;19.00;91.80;;;;;;5073086;28;20035;-65
2022/09/27 00:10:37;;;;;;;;;;;;;;;;;;5074358;28;20058;-65
2022/09/27 00:13:02;;;;;;;;;;;19.10;91.80;;;;;;5074234;28;19925;-65
2022/09/27 00:15:28;;;;;;;;;;;19.00;91.70;;;;;;5071859;28;19924;-63
2022/09/27 00:17:54;;;;;;;;;;;19.10;91.80;;;;;;5074452;28;20003;-65
2022/09/27 00:20:20;;;;;;;;;;;19.00;91.80;;;;;;5074488;28;20289;-65
2022/09/27 00:26:23;;;;;;;;;;;19.10;91.80;;;;;;5072963;28;19963;-64
2022/09/27 00:28:49;;;;;;;;;;;19.10;91.80;;;;;;5070624;28;19970;-63
2022/09/27 00:31:25;;;;;;;;;;;18.90;91.80;;;;;;5073666;28;19924;-65
2022/09/27 00:33:51;;;;;;;;;;;19.20;91.80;;;;;;5073033;28;19978;-65
2022/09/27 00:36:17;;;;;;;;;;;19.00;91.70;;;;;;5069638;28;20445;-64
2022/09/27 00:38:42;;;;;;;;;;;19.10;91.80;;;;;;5071136;28;20007;-64
2022/09/27 00:41:08;;;;;;;;;;;;;;;;;;5073489;28;20316;-64
2022/09/27 00:43:56;;;;;;;;;;;19.00;91.80;;;;;;5073732;28;20271;-64
2022/09/27 00:46:37;;;;;;;;;;;19.10;91.80;;;;;;5074040;28;19934;-65
2022/09/27 00:49:17;;;;;;;;;;;19.20;91.80;;;;;;5071295;28;19970;-65
2022/09/27 00:51:43;;;;;;;;;;;19.20;91.80;;;;;;5072025;28;19983;-66
2022/09/27 00:54:09;;;;;;;;;;;19.30;91.90;;;;;;5073932;28;19972;-64
2022/09/27 00:56:35;;;;;;;;;;;19.10;91.80;;;;;;5073070;28;19932;-64
2022/09/27 00:59:01;;;;;;;;;;;19.10;91.80;;;;;;5071457;28;19925;-65
2022/09/27 01:01:29;;;;;;;;;;;19.20;91.80;;;;;;5071300;28;19925;-66
2022/09/27 01:04:15;;;;;;;;;;;19.20;91.90;;;;;;5072612;28;19928;-65
2022/09/27 01:06:41;;;;;;;;;;;;;;;;;;5073092;28;19924;-63
2022/09/27 01:09:07;;;;;;;;;;;;;;;;;;5071909;28;19999;-65
2022/09/27 01:11:35;;;;;;;;;;;18.90;91.70;;;;;;5087312;28;20596;-65
2022/09/27 01:14:07;;;;;;;;;;;19.00;91.80;;;;;;5071049;28;20290;-66
2022/09/27 01:16:47;;;;;;;;;;;18.80;91.70;;;;;;5069719;28;19928;-64
2022/09/27 01:19:13;;;;;;;;;;;;;;;;;;5071782;28;19978;-64
2022/09/27 01:21:41;;;;;;;;;;;19.10;91.80;;;;;;5072183;28;20386;-66
2022/09/27 01:24:11;;;;;;;;;;;19.30;91.80;;;;;;5056573;28;19929;-64
2022/09/27 01:26:56;;;;;;;;;;;19.40;91.80;;;;;;5061780;28;19924;-65
2022/09/27 01:29:51;;;;;;;;;;;19.20;91.80;;;;;;5064693;28;19929;-65
2022/09/27 01:32:23;;;;;;;;;;;19.30;91.80;;;;;;5010132;28;20074;-65
2022/09/27 01:34:51;;;;;;;;;;;19.40;91.80;;;;;;4994458;28;20016;-64
2022/09/27 01:37:23;;;;;;;;;;;19.00;91.70;;;;;;5011245;28;19930;-65
2022/09/27 01:39:51;;;;;;;;;;;18.90;91.70;;;;;;5010077;28;19926;-65
2022/09/27 01:42:21;;;;;;;;;;;19.00;91.70;;;;;;5010914;28;20007;-65
2022/09/27 01:44:48;;;;;;;;;;;18.80;91.70;;;;;;5007085;28;20026;-62
2022/09/27 01:47:18;;;;;;;;;;;19.00;91.70;;;;;;4995407;28;19925;-66
2022/09/27 01:49:49;;;;;;;;;;;19.00;91.70;;;;;;4985620;28;19932;-65
2022/09/27 01:52:15;;;;;;;;;;;19.10;91.70;;;;;;5009958;28;19932;-65
2022/09/27 01:54:44;;;;;;;;;;;19.10;91.70;;;;;;4995585;28;20534;-65
2022/09/27 01:57:10;;;;;;;;;;;19.20;91.80;;;;;;4978864;28;19980;-65
2022/09/27 01:59:46;;;;;;;;;;;19.00;91.70;;;;;;4977621;28;20383;-65
2022/09/27 02:02:12;;;;;;;;;;;19.00;91.70;;;;;;4994464;28;19930;-65
2022/09/27 02:04:38;;;;;;;;;;;18.90;91.70;;;;;;5010373;28;19937;-65
2022/09/27 02:07:11;;;;;;;;;;;18.80;91.70;;;;;;4994524;28;20050;-65
2022/09/27 02:09:38;;;;;;;;;;;19.00;91.70;;;;;;5065375;28;19970;-63
2022/09/27 02:12:04;;;;;;;;;;;;;;;;;;5074177;28;19924;-67
2022/09/27 02:14:32;;;;;;;;;;;19.00;91.70;;;;;;5068521;28;19925;-66
2022/09/27 02:17:14;;;;;;;;;;;19.20;91.80;;;;;;5076536;28;19936;-64
2022/09/27 02:19:44;;;;;;;;;;;18.90;91.70;;;;;;5063863;28;19975;-65
2022/09/27 02:22:13;;;;;;;;;;;19.10;91.70;;;;;;5068691;28;20382;-65
2022/09/27 02:24:40;;;;;;;;;;;19.00;91.70;;;;;;5076871;28;20019;-64
2022/09/27 02:27:11;;;;;;;;;;;19.20;91.70;;;;;;5075271;28;19925;-65
2022/09/27 02:29:38;;;;;;;;;;;19.10;91.80;;;;;;5072549;28;20298;-64
2022/09/27 02:32:05;;;;;;;;;;;18.70;91.60;;;;;;5073779;28;19932;-65
2022/09/27 02:34:31;;;;;;;;;;;18.90;91.70;;;;;;5076522;28;19928;-65
2022/09/27 02:36:57;;;;;;;;;;;18.90;91.70;;;;;;5076211;28;20338;-65
2022/09/27 02:39:23;;;;;;;;;;;19.10;91.70;;;;;;5072880;28;19924;-66
2022/09/27 02:41:48;;;;;;;;;;;18.80;91.60;;;;;;5073623;28;21790;-65
2022/09/27 02:44:14;;;;;;;;;;;19.20;91.70;;;;;;5076108;28;19925;-65
2022/09/27 02:47:03;;;;;;;;;;;19.10;91.70;;;;;;5071764;28;20038;-66
2022/09/27 02:49:47;;;;;;;;;;;18.90;91.60;;;;;;4997312;28;19965;-65
2022/09/27 02:52:19;;;;;;;;;;;19.00;91.70;;;;;;5002690;28;20020;-66
2022/09/27 02:55:05;;;;;;;;;;;19.00;91.60;;;;;;4994039;28;19926;-65
2022/09/27 02:57:36;;;;;;;;;;;19.00;91.70;;;;;;4995143;28;20319;-65
2022/09/27 03:00:09;;;;;;;;;;;18.90;91.60;;;;;;4994975;28;19973;-66
2022/09/27 03:02:53;;;;;;;;;;;18.80;91.60;;;;;;4978165;28;19926;-65
2022/09/27 03:05:20;;;;;;;;;;;19.20;91.70;;;;;;5012011;28;19987;-65
2022/09/27 03:07:46;;;;;;;;;;;18.80;91.50;;;;;;5002527;28;19926;-65
2022/09/27 03:10:16;;;;;;;;;;;18.80;91.60;;;;;;4998290;28;20012;-65
2022/09/27 03:12:42;;;;;;;;;;;19.10;91.70;;;;;;5003314;28;19941;-65
2022/09/27 03:15:07;;;;;;;;;;;18.90;91.60;;;;;;4995965;28;19925;-65
2022/09/27 03:17:33;;;;;;;;;;;;;;;;;;4996762;28;19973;-64
2022/09/27 03:19:59;;;;;;;;;;;19.20;91.70;;;;;;4994063;28;20388;-65
2022/09/27 03:22:25;;;;;;;;;;;19.00;91.60;;;;;;4996440;28;19926;-64
2022/09/27 03:24:51;;;;;;;;;;;18.80;91.60;;;;;;5011560;28;20008;-66
2022/09/27 03:27:17;;;;;;;;;;;19.00;91.60;;;;;;5052470;28;20296;-65
2022/09/27 03:29:42;;;;;;;;;;;19.00;91.60;;;;;;5072403;28;19925;-64
2022/09/27 03:32:08;;;;;;;;;;;19.20;91.70;;;;;;5074141;28;20348;-66
2022/09/27 03:34:34;;;;;;;;;;;19.00;91.60;;;;;;5074967;28;19924;-66
2022/09/27 03:36:59;;;;;;;;;;;19.00;91.60;;;;;;5070442;28;19964;-65
2022/09/27 03:39:25;;;;;;;;;;;19.00;91.60;;;;;;5072265;28;19978;-65
2022/09/27 03:41:51;;;;;;;;;;;18.80;91.60;;;;;;5073869;28;19928;-65
2022/09/27 03:44:16;;;;;;;;;;;19.00;91.70;;;;;;5074658;28;19968;-64
2022/09/27 03:46:42;;;;;;;;;;;18.80;91.60;;;;;;5072023;28;20011;-66
2022/09/27 03:49:08;;;;;;;;;;;19.20;91.70;;;;;;5074271;28;20023;-66
2022/09/27 03:51:33;;;;;;;;;;;18.90;91.60;;;;;;5068711;28;19971;-66
2022/09/27 03:53:59;;;;;;;;;;;18.70;91.60;;;;;;5060970;28;19925;-65
2022/09/27 03:56:25;;;;;;;;;;;18.70;91.50;;;;;;5065871;28;20377;-65
2022/09/27 03:58:50;;;;;;;;;;;18.80;91.60;;;;;;5061498;28;19924;-65
2022/09/27 04:01:16;;;;;;;;;;;18.70;91.60;;;;;;5072821;28;19946;-65
2022/09/27 04:03:41;;;;;;;;;;;19.00;91.60;;;;;;5071838;28;19931;-66
2022/09/27 04:06:07;;;;;;;;;;;18.80;91.60;;;;;;5008485;28;1859289;-65
2022/09/27 04:08:33;;;;;;;;;;;19.00;91.60;;;;;;5072711;28;19986;-63
2022/09/27 04:10:58;;;;;;;;;;;18.90;91.60;;;;;;5074795;28;20027;-66
2022/09/27 04:13:24;;;;;;;;;;;19.00;91.50;;;;;;5073118;28;19967;-66
2022/09/27 04:15:50;;;;;;;;;;;18.90;91.60;;;;;;5074411;28;19928;-65
2022/09/27 04:18:16;;;;;;;;;;;18.80;91.50;;;;;;5070510;28;19925;-66
2022/09/27 04:20:41;;;;;;;;;;;19.00;91.60;;;;;;5057961;28;19968;-65
2022/09/27 04:23:07;;;;;;;;;;;18.80;91.50;;;;;;5073347;28;20023;-66
2022/09/27 04:25:33;;;;;;;;;;;19.10;91.60;;;;;;5073232;28;19929;-66
2022/09/27 04:27:59;;;;;;;;;;;;;;;;;;5072467;28;20789;-63
2022/09/27 04:30:25;;;;;;;;;;;18.80;91.50;;;;;;5073577;28;20019;-65
2022/09/27 04:32:50;;;;;;;;;;;19.00;91.60;;;;;;5074180;28;19928;-66
2022/09/27 04:38:00;;;;;;;;;;;;;;;;;;5071100;28;20015;-66
2022/09/27 04:40:26;;;;;;;;;;;19.00;91.60;;;;;;5063709;28;19924;-65
2022/09/27 04:42:52;;;;;;;;;;;18.90;91.60;;;;;;5073788;28;20317;-65
2022/09/27 04:45:18;;;;;;;;;;;18.90;91.50;;;;;;5071710;28;19929;-66
2022/09/27 04:47:43;;;;;;;;;;;18.90;91.60;;;;;;5073802;28;19925;-65
2022/09/27 04:50:09;;;;;;;;;;;19.10;91.60;;;;;;5072374;28;19924;-65
2022/09/27 04:52:36;;;;;;;;;;;;;;;;;;5072059;28;19936;-65
2022/09/27 04:55:01;;;;;;;;;;;18.80;91.50;;;;;;5073954;28;19955;-65
2022/09/27 04:57:27;;;;;;;;;;;;;;;;;;5071776;28;19975;-63
2022/09/27 04:59:53;;;;;;;;;;;18.70;91.50;;;;;;5072082;28;19964;-64
2022/09/27 05:02:19;;;;;;;;;;;18.80;91.50;;;;;;5071788;28;19959;-65
2022/09/27 05:04:44;;;;;;;;;;;18.90;91.50;;;;;;5071898;28;19924;-65
2022/09/27 05:07:10;;;;;;;;;;;19.00;91.60;;;;;;5072437;28;19925;-65
2022/09/27 05:09:36;;;;;;;;;;;19.10;91.60;;;;;;5070872;28;20294;-65
2022/09/27 05:12:02;;;;;;;;;;;18.80;91.60;;;;;;5071543;28;19924;-65
2022/09/27 05:14:27;;;;;;;;;;;18.90;91.60;;;;;;5074012;28;20420;-65
2022/09/27 05:16:54;;;;;;;;;;;18.90;91.60;;;;;;5073586;28;19931;-65
2022/09/27 05:19:19;;;;;;;;;;;18.70;91.50;;;;;;5073471;28;19971;-65
2022/09/27 05:21:45;;;;;;;;;;;18.90;91.60;;;;;;5070729;28;20359;-65
2022/09/27 05:24:11;;;;;;;;;;;18.70;91.50;;;;;;5070374;28;19951;-65
2022/09/27 05:26:36;;;;;;;;;;;18.90;91.60;;;;;;5061553;28;19993;-64
2022/09/27 05:29:02;;;;;;;;;;;18.80;91.60;;;;;;5073327;28;19979;-65
2022/09/27 05:31:28;;;;;;;;;;;18.90;91.60;;;;;;5071030;28;19931;-65
2022/09/27 05:33:54;;;;;;;;;;;18.70;91.60;;;;;;5072988;28;20370;-65
2022/09/27 05:36:22;;;;;;;;;;;19.00;91.60;;;;;;5072944;28;20378;-66
2022/09/27 05:38:48;;;;;;;;;;;;;;;;;;5057262;28;19932;-64
2022/09/27 05:41:14;;;;;;;;;;;18.90;91.60;;;;;;5064423;28;19924;-64
2022/09/27 05:43:40;;;;;;;;;;;18.80;91.60;;;;;;5072034;28;20015;-65
2022/09/27 05:46:06;;;;;;;;;;;18.70;91.60;;;;;;5072918;28;20017;-65
2022/09/27 05:48:31;;;;;;;;;;;19.20;91.70;;;;;;5071677;28;19929;-66
2022/09/27 05:50:57;;;;;;;;;;;;;;;;;;5072893;28;19932;-63
2022/09/27 05:53:23;;;;;;;;;;;18.80;91.70;;;;;;5071094;28;20332;-65
2022/09/27 05:55:49;;;;;;;;;;;18.90;91.70;;;;;;5060989;28;19924;-61
2022/09/27 05:58:15;;;;;;;;;;;19.10;91.70;;;;;;5070821;28;19930;-66
2022/09/27 06:00:41;;;;;;;;;;;18.90;91.70;;;;;;5072847;28;20019;-66
2022/09/27 06:03:06;;;;;;;;;;;19.00;91.70;;;;;;5070688;28;19920;-66
2022/09/27 06:05:36;;;;;;;;;;;18.80;91.60;;;;;;5072683;28;19932;-66
2022/09/27 06:08:03;;;;;;;;;;;18.70;91.60;;;;;;5071025;28;19929;-66
2022/09/27 06:10:28;;;;;;;;;;;19.00;91.30;;;;;;5053394;28;19932;-67
2022/09/27 06:13:20;;;;;;;;;;;19.00;91.60;;;;;;5062805;28;19924;-67
2022/09/27 06:15:46;;;;;;;;;;;19.00;91.60;;;;;;5010396;28;20004;-67
2022/09/27 06:18:14;;;;;;;;;;;18.90;91.60;;;;;;5011070;28;20354;-64
2022/09/27 06:20:41;;;;;;;;;;;18.90;91.60;;;;;;5001740;28;19921;-64
2022/09/27 06:23:08;;;;;;;;;;;18.90;91.60;;;;;;5001956;28;19969;-63
2022/09/27 06:25:34;;;;;;;;;;;19.00;91.60;;;;;;5010564;28;19921;-62
2022/09/27 06:28:00;;;;;;;;;;;18.90;91.60;;;;;;4977634;28;19932;-68
2022/09/27 06:30:26;;;;;;;;;;;19.20;91.70;;;;;;5010559;28;19925;-61
2022/09/27 06:32:58;;;;;;;;;;;18.80;91.50;;;;;;4988024;28;19965;-63
2022/09/27 06:35:23;;;;;;;;;;;19.00;91.60;;;;;;4984597;28;20423;-62
2022/09/27 06:37:50;;;;;;;;;;;18.70;91.50;;;;;;5000262;28;19971;-68
2022/09/27 06:40:16;;;;;;;;;;;19.20;91.70;;;;;;5011721;28;19926;-62
2022/09/27 06:42:42;;;;;;;;;;;;;;;;;;5007823;28;19975;-63
2022/09/27 06:45:08;;;;;;;;;;;18.90;91.60;;;;;;5006087;28;20027;-61
2022/09/27 06:47:37;;;;;;;;;;;19.10;91.50;;;;;;5000426;28;20084;-61
2022/09/27 06:50:05;;;;;;;;;;;18.90;91.50;;;;;;4997218;28;19925;-61
2022/09/27 06:52:31;;;;;;;;;;;19.00;91.60;;;;;;5025834;28;19934;-61
2022/09/27 06:54:57;;;;;;;;;;;19.10;91.60;;;;;;5071876;28;19924;-62
2022/09/27 07:00:25;;;;;;;;;;;19.20;91.60;;;;;;5075759;28;19925;-61
2022/09/27 07:02:51;;;;;;;;;;;19.00;91.60;;;;;;5076654;28;19924;-61
2022/09/27 07:05:17;;;;;;;;;;;18.80;91.50;;;;;;5074375;28;19947;-61
2022/09/27 07:07:47;;;;;;;;;;;19.10;91.60;;;;;;5076315;28;19924;-62
2022/09/27 07:10:13;;;;;;;;;;;19.10;91.60;;;;;;5076799;28;19924;-64
2022/09/27 07:12:39;;;;;;;;;;;19.10;91.60;;;;;;5076811;28;19925;-61
2022/09/27 07:15:05;;;;;;;;;;;19.10;91.60;;;;;;5074586;28;19924;-61
2022/09/27 07:17:30;;;;;;;;;;;19.00;91.50;;;;;;5075742;28;19921;-62
2022/09/27 07:19:56;;;;;;;;;;;19.00;91.60;;;;;;5075885;28;19925;-62
2022/09/27 07:22:22;;;;;;;;;;;19.10;91.50;;;;;;5070483;28;20439;-62
2022/09/27 07:24:47;;;;;;;;;;;19.10;91.50;;;;;;5074824;28;19924;-61
2022/09/27 07:27:14;;;;;;;;;;;18.90;91.50;;;;;;5073713;28;19935;-64
2022/09/27 07:29:39;;;;;;;;;;;19.10;91.60;;;;;;5058101;28;20400;-62
2022/09/27 07:32:05;;;;;;;;;;;19.00;91.60;;;;;;5076662;28;19932;-62
2022/09/27 07:34:32;;;;;;;;;;;18.80;91.60;;;;;;5076047;28;19932;-61
2022/09/27 07:37:02;;;;;;;;;;;19.00;91.60;;;;;;5074051;28;19924;-65
2022/09/27 07:39:27;;;;;;;;;;;19.00;91.50;;;;;;5075874;28;19924;-65
2022/09/27 07:41:53;;;;;;;;;;;19.00;91.60;;;;;;5074364;28;19970;-64
2022/09/27 07:44:19;;;;;;;;;;;19.10;91.60;;;;;;5076045;28;19932;-64
2022/09/27 07:46:44;;;;;;;;;;;19.00;91.30;;;;;;5073823;28;20023;-65
2022/09/27 07:49:10;;;;;;;;;;;19.00;91.60;;;;;;5076126;28;19932;-64
2022/09/27 07:51:35;;;;;;;;;;;19.30;91.60;;;;;;5075925;28;19947;-64
2022/09/27 07:54:01;;;;;;;;;;;19.20;91.60;;;;;;5075689;28;20312;-65
2022/09/27 07:56:27;;;;;;;;;;;19.00;91.30;;;;;;5075445;28;19924;-66
2022/09/27 07:58:52;;;;;;;;;;;19.10;91.10;;;;;;5075427;28;19931;-72
2022/09/27 08:01:18;;;;;;;;;;;19.10;90.90;;;;;;5075818;28;20444;-71
2022/09/27 08:03:44;;;;;;;;;;;19.20;91.10;;;;;;5075538;28;20322;-61
2022/09/27 08:06:09;;;;;;;;;;;19.10;91.10;;;;;;5074030;28;19931;-61
2022/09/27 08:08:35;;;;;;;;;;;19.10;91.10;;;;;;5072254;28;19928;-61
2022/09/27 08:11:11;;;;;;;;;;;19.10;91.10;;;;;;5069444;28;19934;-61
2022/09/27 08:13:38;;;;;;;;;;;19.10;91.20;;;;;;5073152;28;19924;-64
2022/09/27 08:16:04;;;;;;;;;;;19.00;91.10;;;;;;5073246;28;19932;-61
2022/09/27 08:18:30;;;;;;;;;;;19.10;91.20;;;;;;5073262;28;19932;-64
2022/09/27 08:20:58;;;;;;;;;;;19.20;91.20;;;;;;5070546;28;19924;-61
2022/09/27 08:23:24;;;;;;;;;;;18.90;91.00;;;;;;5070179;28;20046;-61
2022/09/27 08:25:51;;;;;;;;;;;19.20;91.20;;;;;;5073837;28;19967;-61
2022/09/27 08:28:17;;;;;;;;;;;19.40;91.30;;;;;;5075353;28;19994;-61
2022/09/27 08:30:43;;;;;;;;;;;;;;;;;;5072788;28;20370;-71
2022/09/27 08:33:08;;;;;;;;;;;19.10;91.20;;;;;;5074954;28;20282;-61
2022/09/27 08:35:34;;;;;;;;;;;19.10;91.20;;;;;;5074128;28;19927;-61
2022/09/27 08:38:00;;;;;;;;;;;19.20;91.20;;;;;;5073977;28;19925;-67
2022/09/27 08:40:49;;;;;;;;;;;19.30;91.20;;;;;;5073316;28;19979;-69
2022/09/27 08:43:19;;;;;;;;;;;19.10;91.10;;;;;;5008150;28;20406;-66
2022/09/27 08:45:58;;;;;;;;;;;19.20;91.10;;;;;;4983713;28;20016;-62
2022/09/27 08:48:24;;;;;;;;;;;19.40;91.10;;;;;;4984192;28;20087;-61
2022/09/27 08:50:50;;;;;;;;;;;19.30;91.00;;;;;;4996897;28;20041;-61
2022/09/27 08:53:21;;;;;;;;;;;19.30;91.00;;;;;;4994828;28;19925;-66
2022/09/27 08:55:49;;;;;;;;;;;19.50;91.10;;;;;;5011704;28;19925;-71
2022/09/27 08:58:17;;;;;;;;;;;19.60;90.80;;;;;;4979309;28;19925;-73
2022/09/27 09:00:43;;;;;;;;;;;19.60;90.70;;;;;;5001919;28;19932;-71
2022/09/27 09:03:18;;;;;;;;;;;19.60;90.80;;;;;;4988900;28;19922;-71
2022/09/27 09:06:16;;;;;;;;;;;19.40;90.70;;;;;;4994915;28;19925;-71
2022/09/27 09:08:45;;;;;;;;;;;19.70;90.70;;;;;;4973436;28;20512;-72
2022/09/27 09:14:18;;;;;;;;;;;19.70;90.50;;;;;;4958627;28;20021;-71
2022/09/27 09:16:46;;;;;;;;;;;19.70;90.40;;;;;;4972515;28;20065;-71
2022/09/27 09:19:11;;;;;;;;;;;20.00;90.40;;;;;;4975843;28;19926;-66
2022/09/27 09:21:42;;;;;;;;;;;19.90;90.20;;;;;;5008107;28;19948;-69
2022/09/27 09:24:26;;;;;;;;;;;19.90;90.20;;;;;;4994928;28;19926;-67
2022/09/27 09:26:55;;;;;;;;;;;19.70;90.10;;;;;;5002247;28;19929;-69
2022/09/27 09:29:24;;;;;;;;;;;19.90;90.10;;;;;;5010972;28;19968;-71
2022/09/27 09:31:52;;;;;;;;;;;19.70;90.00;;;;;;5011573;28;20036;-71
2022/09/27 09:34:19;;;;;;;;;;;20.00;90.00;;;;;;4990970;28;19925;-71
2022/09/27 09:36:46;;;;;;;;;;;19.80;89.90;;;;;;4979093;28;19926;-72
2022/09/27 09:39:12;;;;;;;;;;;19.90;90.00;;;;;;4997895;28;20008;-72
2022/09/27 09:41:39;;;;;;;;;;;19.90;89.90;;;;;;5011973;28;20147;-71
2022/09/27 09:44:37;;;;;;;;;;;20.00;89.80;;;;;;5036352;28;19975;-70
2022/09/27 09:47:02;;;;;;;;;;;20.10;89.80;;;;;;4975425;28;19926;-70
2022/09/27 09:49:29;;;;;;;;;;;20.10;89.90;;;;;;4974482;28;19926;-71
2022/09/27 09:52:01;;;;;;;;;;;19.90;89.70;;;;;;4992260;28;19973;-71
2022/09/27 09:54:35;;;;;;;;;;;19.90;89.60;;;;;;4992244;28;19926;-71
2022/09/27 09:57:03;;;;;;;;;;;20.10;89.60;;;;;;4990840;28;19999;-72
2022/09/27 09:59:31;;;;;;;;;;;20.10;89.40;;;;;;4991599;28;19932;-71
2022/09/27 10:01:59;;;;;;;;;;;20.20;89.30;;;;;;4990528;28;19921;-71
2022/09/27 10:04:26;;;;;;;;;;;20.00;89.10;;;;;;4964356;28;19926;-64
2022/09/27 10:06:52;;;;;;;;;;;20.30;89.20;;;;;;4982732;28;19933;-63
2022/09/27 10:09:20;;;;;;;;;;;20.10;89.20;;;;;;4991821;28;19950;-65
2022/09/27 10:11:46;;;;;;;;;;;20.40;89.40;;;;;;4991021;28;19926;-72
2022/09/27 10:14:13;;;;;;;;;;;20.40;89.40;;;;;;4971874;28;19926;-69
2022/09/27 10:16:41;;;;;;;;;;;20.30;89.20;;;;;;4984586;28;20026;-70
2022/09/27 10:19:07;;;;;;;;;;;20.50;89.30;;;;;;4991312;28;19932;-70
2022/09/27 10:21:32;;;;;;;;;;;20.30;89.00;;;;;;4979767;28;20020;-71
2022/09/27 10:23:58;;;;;;;;;;;;;;;;;;5064391;28;19978;-66
2022/09/27 10:26:25;;;;;;;;;;;20.50;89.00;;;;;;5058869;28;19925;-71
2022/09/27 10:28:51;;;;;;;;;;;20.50;88.90;;;;;;5071707;28;19929;-72
2022/09/27 10:31:17;;;;;;;;;;;20.50;89.10;;;;;;5076176;28;19931;-71
2022/09/27 10:34:00;;;;;;;;;;;20.70;88.90;;;;;;5077529;28;20381;-70
2022/09/27 10:36:28;;;;;;;;;;;20.20;88.50;;;;;;5075921;28;19931;-71
2022/09/27 10:38:54;;;;;;;;;;;20.70;89.10;;;;;;5075144;28;20030;-71
2022/09/27 10:41:40;;;;;;;;;;;20.40;88.10;;;;;;5075956;28;19972;-69
2022/09/27 10:44:15;;;;;;;;;;;20.50;88.20;;;;;;5077228;28;20336;-71
2022/09/27 10:46:43;;;;;;;;;;;20.70;87.30;;;;;;5076605;28;19928;-62
2022/09/27 10:49:13;;;;;;;;;;;20.50;87.90;;;;;;5076905;28;20342;-67
2022/09/27 10:51:40;;;;;;;;;;;20.50;87.80;;;;;;5072713;28;19928;-71
2022/09/27 10:54:16;;;;;;;;;;;20.60;87.80;;;;;;5076358;28;20382;-70
2022/09/27 10:56:42;;;;;;;;;;;20.60;87.50;;;;;;5075633;28;19924;-71
2022/09/27 10:59:12;;;;;;;;;;;20.30;87.40;;;;;;5075380;28;20271;-70
2022/09/27 11:01:50;;;;;;;;;;;20.60;87.50;;;;;;5057038;28;20328;-63
2022/09/27 11:04:18;;;;;;;;;;;20.50;87.30;;;;;;5076242;28;20007;-69
2022/09/27 11:06:43;;;;;;;;;;;20.50;87.70;;;;;;5075270;28;19928;-61
2022/09/27 11:09:10;;;;;;;;;;;;;;;;;;5076478;28;20074;-63
2022/09/27 11:11:36;;;;;;;;;;;20.30;87.00;;;;;;5072471;28;20279;-63
2022/09/27 11:14:03;;;;;;;;;;;20.50;87.20;;;;;;5075806;28;19931;-69
2022/09/27 11:16:28;;;;;;;;;;;20.30;87.20;;;;;;5075897;28;19924;-63
2022/09/27 11:18:54;;;;;;;;;;;20.10;87.10;;;;;;5075901;28;19947;-71
2022/09/27 11:21:41;;;;;;;;;;;20.20;87.30;;;;;;5075447;28;19928;-69
2022/09/27 11:24:10;;;;;;;;;;;19.90;87.20;;;;;;5069862;28;19924;-69
2022/09/27 11:26:43;;;;;;;;;;;19.80;87.10;;;;;;5075404;28;19924;-63
2022/09/27 11:29:09;;;;;;;;;;;20.00;87.40;;;;;;5075434;28;19925;-68
2022/09/27 11:31:37;;;;;;;;;;;19.90;87.20;;;;;;5076342;28;19925;-64
2022/09/27 11:34:12;;;;;;;;;;;19.80;87.10;;;;;;5074046;28;19931;-70
2022/09/27 11:36:41;;;;;;;;;;;19.80;87.10;;;;;;5073758;28;20003;-69
2022/09/27 11:39:27;;;;;;;;;;;19.80;87.20;;;;;;5074151;28;20022;-61
2022/09/27 11:41:57;;;;;;;;;;;19.70;87.20;;;;;;5074458;28;20013;-60
2022/09/27 11:44:26;;;;;;;;;;;19.80;87.10;;;;;;5071866;28;19925;-63
2022/09/27 11:47:01;;;;;;;;;;;19.50;86.90;;;;;;5074713;28;19920;-61
2022/09/27 11:49:27;;;;;;;;;;;;;;;;;;5073742;28;19924;-67
2022/09/27 11:51:59;;;;;;;;;;;19.40;87.00;;;;;;5073852;28;19966;-61
2022/09/27 11:54:36;;;;;;;;;;;19.40;87.00;;;;;;5072712;28;20085;-69
2022/09/27 11:57:15;;;;;;;;;;;19.60;87.20;;;;;;5054529;28;19925;-71
2022/09/27 11:59:52;;;;;;;;;;;19.50;87.20;;;;;;5055584;28;19935;-71
2022/09/27 12:02:23;;;;;;;;;;;19.90;87.40;;;;;;5064561;28;19932;-72
2022/09/27 12:04:49;;;;;;;;;;;;;;;;;;5070517;28;19931;-62
2022/09/27 12:07:53;;;;;;;;;;;19.70;87.10;;;;;;5075287;28;20267;-71
2022/09/27 12:10:21;;;;;;;;;;;19.80;87.30;;;;;;4993860;28;19925;-70
2022/09/27 12:12:50;;;;;;;;;;;19.90;87.30;;;;;;4993824;28;19926;-71
2022/09/27 12:15:20;;;;;;;;;;;19.80;87.30;;;;;;4994094;28;19976;-71
2022/09/27 12:17:46;;;;;;;;;;;19.80;87.50;;;;;;4993046;28;20016;-71
2022/09/27 12:20:18;;;;;;;;;;;19.80;87.70;;;;;;4993565;28;19926;-68
2022/09/27 12:22:52;;;;;;;;;;;20.20;87.90;;;;;;4977952;28;19926;-68
2022/09/27 12:25:18;;;;;;;;;;;20.50;88.10;;;;;;4977656;28;20013;-69
2022/09/27 12:27:48;;;;;;;;;;;20.30;87.70;;;;;;4992951;28;20052;-69
2022/09/27 12:30:14;;;;;;;;;;;20.40;87.60;;;;;;4993515;28;20072;-68
2022/09/27 12:32:51;;;;;;;;;;;20.50;87.40;;;;;;4992185;28;20024;-69
2022/09/27 12:35:17;;;;;;;;;;;20.40;87.30;;;;;;4968079;28;19972;-69
2022/09/27 12:37:59;;;;;;;;;;;20.50;87.30;;;;;;4958156;28;19926;-68
2022/09/27 12:40:28;;;;;;;;;;;20.10;87.10;;;;;;4993299;28;19924;-69
2022/09/27 12:43:00;;;;;;;;;;;20.40;87.10;;;;;;5053868;28;20385;-67
2022/09/27 12:45:38;;;;;;;;;;;20.40;87.20;;;;;;5062292;28;19924;-67
2022/09/27 12:48:07;;;;;;;;;;;20.40;87.20;;;;;;5066821;28;19924;-69
2022/09/27 12:50:33;;;;;;;;;;;20.60;87.50;;;;;;5074213;28;19928;-69
2022/09/27 12:53:09;;;;;;;;;;;20.60;87.20;;;;;;5073935;28;19925;-69
2022/09/27 12:55:36;;;;;;;;;;;20.30;86.20;;;;;;5072911;28;20393;-66
2022/09/27 12:58:07;;;;;;;;;;;20.60;87.20;;;;;;5054274;28;19925;-69
2022/09/27 13:00:46;;;;;;;;;;;20.50;87.20;;;;;;5054814;28;20004;-69
2022/09/27 13:03:13;;;;;;;;;;;20.30;87.10;;;;;;5060841;28;20301;-69
2022/09/27 13:05:48;;;;;;;;;;;20.60;87.30;;;;;;5074792;28;19970;-69
2022/09/27 13:08:21;;;;;;;;;;;20.30;87.10;;;;;;5073834;28;19924;-68
2022/09/27 13:10:56;;;;;;;;;;;20.50;87.20;;;;;;5072537;28;19924;-69
2022/09/27 13:13:25;;;;;;;;;;;20.30;87.10;;;;;;5071586;28;19932;-73
2022/09/27 13:15:52;;;;;;;;;;;20.40;87.00;;;;;;5056446;28;19936;-69
2022/09/27 13:18:29;;;;;;;;;;;20.40;87.20;;;;;;5054141;28;19921;-70
2022/09/27 13:20:55;;;;;;;;;;;20.50;87.10;;;;;;5066475;28;20318;-61
2022/09/27 13:23:21;;;;;;;;;;;20.70;87.30;;;;;;5073394;28;19921;-62
2022/09/27 13:25:47;;;;;;;;;;;20.30;87.00;;;;;;5066728;28;20290;-62
2022/09/27 13:28:31;;;;;;;;;;;20.30;87.10;;;;;;5074313;28;19920;-62
2022/09/27 13:31:01;;;;;;;;;;;20.30;87.10;;;;;;5073818;28;20435;-67
2022/09/27 13:33:31;;;;;;;;;;;20.40;87.20;;;;;;5073518;28;20030;-61
2022/09/27 13:36:06;;;;;;;;;;;20.50;86.40;;;;;;5072467;28;19974;-61
2022/09/27 13:38:32;;;;;;;;;;;20.40;87.20;;;;;;5072239;28;19924;-62
2022/09/27 13:41:14;;;;;;;;;;;20.30;87.20;;;;;;5074230;28;20414;-61
2022/09/27 13:44:04;;;;;;;;;;;20.50;87.30;;;;;;5072074;28;19935;-61
2022/09/27 13:46:30;;;;;;;;;;;20.30;87.20;;;;;;5073241;28;19931;-62
2022/09/27 13:48:58;;;;;;;;;;;20.30;87.20;;;;;;5068789;28;19928;-68
2022/09/27 13:51:27;;;;;;;;;;;20.50;87.30;;;;;;5073704;28;19978;-61
2022/09/27 13:54:04;;;;;;;;;;;20.10;87.20;;;;;;5073484;28;19925;-61
2022/09/27 13:56:36;;;;;;;;;;;20.30;87.30;;;;;;5072224;28;19946;-61
2022/09/27 13:59:20;;;;;;;;;;;20.20;87.20;;;;;;5063444;28;19975;-67
2022/09/27 14:02:01;;;;;;;;;;;20.20;87.30;;;;;;5063431;28;19924;-61
2022/09/27 14:04:28;;;;;;;;;;;20.30;87.30;;;;;;5075605;28;20015;-69
2022/09/27 14:06:56;;;;;;;;;;;20.10;87.20;;;;;;5077809;28;20413;-68
2022/09/27 14:09:38;;;;;;;;;;;20.00;87.10;;;;;;5074272;28;20350;-66
2022/09/27 14:12:09;;;;;;;;;;;20.40;87.30;;;;;;5070291;28;19951;-66
2022/09/27 14:14:36;;;;;;;;;;;20.30;87.20;;;;;;5076628;28;19931;-66
2022/09/27 14:17:05;;;;;;;;;;;20.20;87.20;;;;;;5076663;28;20393;-66
2022/09/27 14:19:32;;;;;;;;;;;20.10;87.20;;;;;;5076490;28;20443;-66
2022/09/27 14:21:58;;;;;;;;;;;20.00;87.00;;;;;;5073254;28;19964;-66
2022/09/27 14:24:28;;;;;;;;;;;20.20;87.30;;;;;;5077480;28;20383;-67
2022/09/27 14:27:12;;;;;;;;;;;20.10;87.10;;;;;;5077436;28;19924;-65
2022/09/27 14:29:43;;;;;;;;;;;20.00;87.00;;;;;;5076379;28;20007;-69
2022/09/27 14:32:13;;;;;;;;;;;19.90;87.10;;;;;;5072289;28;19932;-61
2022/09/27 14:34:39;;;;;;;;;;;20.00;87.10;;;;;;5057250;28;19975;-61
2022/09/27 14:39:52;;;;;;;;;;;20.10;86.00;;;;;;5041901;28;19924;-61
2022/09/27 14:42:20;;;;;;;;;;;19.70;87.10;;;;;;5061076;28;20345;-61
2022/09/27 14:44:45;;;;;;;;;;;19.80;87.30;;;;;;5074461;28;19928;-61
2022/09/27 14:47:18;;;;;;;;;;;19.90;87.30;;;;;;5076880;28;19924;-61
2022/09/27 14:49:47;;;;;;;;;;;19.90;87.30;;;;;;5077254;28;20277;-61